Holloway, Louisiana
Current Conditions -  °F | °C
As of 2:53 AM on Thursday 18 Dec 2014 (Local Time) from KESF Reporting Station
Overcast Overcast  
Wind Chill: 50°   Ceiling: 2900
Heat Index: 50°   Visibility: 10mi
Dew Point: 43°   Wind: 0mph
Humidity: 77%   Direction: NA
Pressure: 30.16"   Gusts: NA
Location:  31.3606°N, 92.2142°W
Report Text: KESF 180853Z AUTO 00000KT 10SM OVC029 10/06 A3016 RMK AO2 SLP213 60000 T01000061 56004
Loading
Personal Weather Stations






























Interactive Weather Map New forecast layout! Learn more

10-Day Weather Forecast

Advertisements
Track Severe Weather on mobile